createdAt,value
2017-02-23T04:01:00.818Z,71.15
2017-02-23T04:01:26.391Z,71.15
2017-02-23T04:01:51.972Z,71.05
2017-02-23T04:02:17.538Z,71.15
2017-02-23T04:02:43.160Z,71.11
2017-02-23T04:03:08.744Z,70.76
2017-02-23T04:03:34.311Z,71.15
2017-02-23T04:03:59.884Z,70.96
2017-02-23T04:04:25.450Z,71.15
2017-02-23T04:04:51.003Z,71.21
2017-02-23T04:05:16.561Z,71.15
2017-02-23T04:05:42.161Z,71.15
2017-02-23T04:06:07.742Z,71.25
2017-02-23T04:06:33.298Z,70.96
2017-02-23T04:06:58.854Z,71.15
2017-02-23T04:07:24.428Z,71.11
2017-02-23T04:07:49.982Z,71.05
2017-02-23T04:08:15.552Z,70.96
2017-02-23T04:08:41.121Z,71.21
2017-02-23T04:09:06.695Z,71.25
2017-02-23T04:09:32.453Z,71.05
2017-02-23T04:09:58.011Z,71.25
2017-02-23T04:10:23.573Z,71.15
2017-02-23T04:10:49.682Z,71.05
2017-02-23T04:11:15.266Z,71.15
2017-02-23T04:11:41.765Z,71.15
2017-02-23T04:12:07.326Z,71.15
2017-02-23T04:12:32.894Z,70.86
2017-02-23T04:12:58.458Z,71.11
2017-02-23T04:13:24.030Z,71.15
2017-02-23T04:13:49.602Z,71.15
2017-02-23T04:14:15.164Z,71.15
2017-02-23T04:14:40.745Z,70.67
2017-02-23T04:15:06.323Z,70.67
2017-02-23T04:15:31.927Z,70.67
2017-02-23T04:15:57.501Z,71.15
2017-02-23T04:16:23.733Z,71.15
2017-02-23T04:16:48.626Z,71.15
2017-02-23T04:17:14.196Z,70.67
2017-02-23T04:17:39.781Z,71.15
2017-02-23T04:18:05.343Z,71.15
2017-02-23T04:18:30.915Z,71.15
2017-02-23T04:18:56.519Z,71.15
2017-02-23T04:19:22.119Z,71.15
2017-02-23T04:19:47.692Z,71.25
2017-02-23T04:20:13.240Z,71.15
2017-02-23T04:20:38.791Z,71.05
2017-02-23T04:21:04.461Z,70.76
2017-02-23T04:21:30.030Z,70.96
2017-02-23T04:21:55.594Z,71.15
2017-02-23T04:22:21.278Z,70.86
2017-02-23T04:22:46.924Z,71.15
2017-02-23T04:23:12.496Z,70.92
2017-02-23T04:23:38.049Z,71.15
2017-02-23T04:24:03.579Z,71.15
2017-02-23T04:24:29.142Z,71.15
2017-02-23T04:24:54.690Z,71.11
2017-02-23T04:25:20.242Z,71.15
2017-02-23T04:25:45.804Z,71.05
2017-02-23T04:26:11.367Z,71.15
2017-02-23T04:26:36.916Z,70.96
2017-02-23T04:27:02.482Z,70.96
2017-02-23T04:27:28.040Z,70.92
2017-02-23T04:27:53.638Z,71.15
2017-02-23T04:28:19.199Z,71.05
2017-02-23T04:28:44.754Z,71.11
2017-02-23T04:29:11.236Z,70.73
2017-02-23T04:29:35.924Z,70.96
2017-02-23T04:30:01.464Z,70.86
2017-02-23T04:30:27.020Z,70.86
2017-02-23T04:30:52.562Z,70.86
2017-02-23T04:31:18.097Z,71.02
2017-02-23T04:31:43.701Z,70.76
2017-02-23T04:32:09.282Z,71.05
2017-02-23T04:32:34.822Z,71.15
2017-02-23T04:33:00.366Z,70.92
2017-02-23T04:33:25.923Z,70.92
2017-02-23T04:33:51.570Z,71.02
2017-02-23T04:34:17.148Z,70.83
2017-02-23T04:34:42.722Z,71.05
2017-02-23T04:35:08.365Z,71.05
2017-02-23T04:35:34.044Z,71.05
2017-02-23T04:35:59.611Z,71.31
2017-02-23T04:36:25.171Z,71.05
2017-02-23T04:36:50.731Z,70.86
2017-02-23T04:37:16.380Z,71.25
2017-02-23T04:37:41.952Z,70.86
2017-02-23T04:38:07.512Z,70.86
2017-02-23T04:38:33.209Z,71.05
2017-02-23T04:38:58.767Z,70.92
2017-02-23T04:39:24.366Z,71.11
2017-02-23T04:39:49.978Z,71.05
2017-02-23T04:40:15.500Z,71.05
2017-02-23T04:40:41.064Z,71.11
2017-02-23T04:41:06.621Z,71.02
2017-02-23T04:41:32.186Z,71.02
2017-02-23T04:41:57.806Z,71.05
2017-02-23T04:42:23.355Z,71.02
2017-02-23T04:42:48.911Z,70.92
2017-02-23T04:43:14.467Z,71.15
2017-02-23T04:43:40.011Z,71.15
2017-02-23T04:44:05.565Z,70.96
2017-02-23T04:44:31.759Z,70.83
2017-02-23T04:44:56.733Z,71.15
2017-02-23T04:45:22.301Z,71.05
2017-02-23T04:45:47.852Z,71.02
2017-02-23T04:46:14.244Z,71.02
2017-02-23T04:46:38.984Z,70.96
2017-02-23T04:47:04.535Z,70.96
2017-02-23T04:47:30.099Z,70.83
2017-02-23T04:47:55.715Z,70.96
2017-02-23T04:48:21.293Z,70.96
2017-02-23T04:48:46.874Z,71.05
2017-02-23T04:49:12.430Z,71.15
2017-02-23T04:49:38.045Z,71.05
2017-02-23T04:50:03.582Z,71.05
2017-02-23T04:50:29.200Z,71.02
2017-02-23T04:50:54.774Z,71.53
2017-02-23T04:51:20.321Z,70.83
2017-02-23T04:51:45.923Z,71.31
2017-02-23T04:52:11.474Z,71.72
2017-02-23T04:52:37.014Z,71.31
2017-02-23T04:53:02.566Z,71.53
2017-02-23T04:53:28.141Z,71.53
2017-02-23T04:53:53.721Z,71.59
2017-02-23T04:54:19.299Z,71.53
2017-02-23T04:54:44.873Z,71.5
2017-02-23T04:55:10.430Z,71.53
2017-02-23T04:55:36.011Z,71.4
2017-02-23T04:56:02.248Z,71.53
2017-02-23T04:56:27.132Z,71.4
2017-02-23T04:56:52.901Z,71.63
2017-02-23T04:57:18.450Z,71.5
2017-02-23T04:57:44.992Z,71.5
2017-02-23T04:58:10.569Z,71.5
2017-02-23T04:58:36.244Z,71.63
2017-02-23T04:59:01.851Z,71.53
2017-02-23T04:59:27.413Z,71.4
2017-02-23T04:59:52.981Z,71.4
2017-02-23T05:00:18.639Z,71.31
2017-02-23T05:00:44.214Z,71.53
2017-02-23T05:01:09.777Z,71.34
2017-02-23T05:01:35.343Z,71.34
2017-02-23T05:02:00.925Z,71.53
2017-02-23T05:02:26.502Z,71.5
2017-02-23T05:02:52.835Z,71.31
2017-02-23T05:03:19.619Z,71.44
2017-02-23T05:03:45.192Z,71.44
2017-02-23T05:04:10.799Z,71.21
2017-02-23T05:04:36.352Z,71.4
2017-02-23T05:05:01.924Z,71.25
2017-02-23T05:05:27.549Z,71.4
2017-02-23T05:05:53.211Z,71.25
2017-02-23T05:06:18.793Z,71.44
2017-02-23T05:06:45.134Z,71.31
2017-02-23T05:07:10.743Z,71.25
2017-02-23T05:07:36.310Z,71.25
2017-02-23T05:08:02.090Z,71.25
2017-02-23T05:08:27.682Z,71.11
2017-02-23T05:08:53.238Z,71.31
2017-02-23T05:09:18.800Z,71.25
2017-02-23T05:09:44.364Z,71.21
2017-02-23T05:10:09.989Z,71.21
2017-02-23T05:10:35.564Z,71.25
2017-02-23T05:11:01.132Z,71.34
2017-02-23T05:11:26.696Z,71.21
2017-02-23T05:11:52.261Z,71.4
2017-02-23T05:12:17.829Z,71.21
2017-02-23T05:12:43.401Z,71.21
2017-02-23T05:13:08.990Z,71.25
2017-02-23T05:13:34.690Z,71.4
2017-02-23T05:14:00.264Z,71.15
2017-02-23T05:14:26.758Z,71.11
2017-02-23T05:14:51.387Z,71.4
2017-02-23T05:15:16.958Z,71.34
2017-02-23T05:15:42.524Z,71.21
2017-02-23T05:16:08.082Z,71.34
2017-02-23T05:16:33.733Z,71.31
2017-02-23T05:16:59.319Z,71.34
2017-02-23T05:17:24.876Z,71.34
2017-02-23T05:17:50.461Z,71.44
2017-02-23T05:18:16.102Z,71.72
2017-02-23T05:18:41.685Z,71.69
2017-02-23T05:19:07.253Z,71.59
2017-02-23T05:19:32.835Z,71.53
2017-02-23T05:19:58.433Z,71.69
2017-02-23T05:20:24.002Z,71.5
2017-02-23T05:20:49.553Z,71.72
2017-02-23T05:21:15.113Z,71.63
2017-02-23T05:21:40.682Z,71.63
2017-02-23T05:22:06.244Z,71.78
2017-02-23T05:22:31.819Z,71.69
2017-02-23T05:22:57.393Z,71.78
2017-02-23T05:23:22.945Z,71.72
2017-02-23T05:23:48.515Z,71.82
2017-02-23T05:24:14.065Z,71.72
2017-02-23T05:24:39.642Z,71.59
2017-02-23T05:25:05.213Z,71.5
2017-02-23T05:25:30.778Z,71.53
2017-02-23T05:25:56.343Z,71.4
2017-02-23T05:26:21.905Z,71.92
2017-02-23T05:26:47.474Z,71.82
2017-02-23T05:27:13.032Z,71.98
2017-02-23T05:27:38.578Z,71.82
2017-02-23T05:28:04.204Z,71.92
2017-02-23T05:28:29.753Z,71.72
2017-02-23T05:28:55.396Z,71.88
2017-02-23T05:29:20.953Z,71.92
2017-02-23T05:29:46.523Z,71.88
2017-02-23T05:30:12.096Z,71.69
2017-02-23T05:30:37.706Z,71.72
2017-02-23T05:31:03.366Z,71.88
2017-02-23T05:31:28.901Z,71.69
2017-02-23T05:31:54.448Z,71.78
2017-02-23T05:32:19.994Z,71.78
2017-02-23T05:32:45.581Z,71.5
2017-02-23T05:33:11.146Z,71.69
2017-02-23T05:33:36.695Z,71.82
2017-02-23T05:34:02.273Z,71.69
2017-02-23T05:34:28.766Z,71.5
2017-02-23T05:34:53.423Z,71.69
2017-02-23T05:35:19.002Z,71.82
2017-02-23T05:35:44.554Z,72.01
2017-02-23T05:36:10.102Z,72.01
2017-02-23T05:36:35.678Z,72.07
2017-02-23T05:37:01.248Z,71.98
2017-02-23T05:37:26.818Z,72.07
2017-02-23T05:37:52.381Z,71.92
2017-02-23T05:38:17.948Z,72.17
2017-02-23T05:38:43.493Z,71.92
2017-02-23T05:39:09.041Z,72.01
2017-02-23T05:39:34.589Z,71.82
2017-02-23T05:40:00.134Z,72.01
2017-02-23T05:40:25.681Z,71.78
2017-02-23T05:40:52.270Z,71.69
2017-02-23T05:41:17.839Z,71.92
2017-02-23T05:41:43.389Z,72.07
2017-02-23T05:42:09.069Z,71.92
2017-02-23T05:42:34.641Z,71.92
2017-02-23T05:43:00.203Z,71.88
2017-02-23T05:43:25.861Z,71.78
2017-02-23T05:43:51.437Z,71.82
2017-02-23T05:44:17.005Z,72.07
2017-02-23T05:44:42.560Z,71.98
2017-02-23T05:45:08.768Z,72.01
2017-02-23T05:45:34.267Z,71.82
2017-02-23T05:45:59.290Z,71.59
2017-02-23T05:46:24.849Z,72.01
2017-02-23T05:46:50.413Z,71.59
2017-02-23T05:47:16.056Z,71.78
2017-02-23T05:47:41.622Z,71.72
2017-02-23T05:48:45.126Z,72.01
2017-02-23T05:49:10.684Z,71.78
2017-02-23T05:49:36.248Z,71.78
2017-02-23T05:50:01.885Z,72.2
2017-02-23T05:50:27.446Z,72.2
2017-02-23T05:50:53.009Z,72.17
2017-02-23T05:51:18.675Z,72.27
2017-02-23T05:51:44.243Z,71.78
2017-02-23T05:52:09.803Z,71.82
2017-02-23T05:52:35.443Z,72.2
2017-02-23T05:53:01.067Z,72.3
2017-02-23T05:53:26.625Z,72.07
2017-02-23T05:53:52.221Z,72.17
2017-02-23T05:54:17.814Z,72.17
2017-02-23T05:54:43.481Z,72.07
2017-02-23T05:55:09.046Z,72.3
2017-02-23T05:55:34.615Z,71.92
2017-02-23T05:56:00.174Z,72.07
2017-02-23T05:56:25.726Z,71.92
2017-02-23T05:56:51.284Z,72.2
2017-02-23T05:57:16.846Z,72.17
2017-02-23T05:57:42.450Z,72.17
2017-02-23T05:58:08.020Z,72.3
2017-02-23T05:58:33.586Z,72.01
2017-02-23T05:58:59.916Z,71.92
2017-02-23T05:59:25.483Z,71.98
2017-02-23T05:59:51.043Z,72.07
2017-02-23T06:00:16.618Z,71.92
2017-02-23T06:00:42.174Z,71.98
2017-02-23T06:01:07.750Z,72.07
2017-02-23T06:01:33.322Z,71.98
2017-02-23T06:01:58.911Z,72.07
2017-02-23T06:02:24.473Z,71.98
2017-02-23T06:02:50.056Z,72.07
2017-02-23T06:03:15.621Z,71.98
2017-02-23T06:03:41.341Z,71.98
2017-02-23T06:04:06.922Z,71.72
2017-02-23T06:04:32.494Z,71.98
2017-02-23T06:04:58.075Z,71.98
2017-02-23T06:05:23.641Z,71.78
2017-02-23T06:05:49.217Z,71.78
2017-02-23T06:06:14.824Z,71.88
2017-02-23T06:06:40.404Z,72.45
2017-02-23T06:07:05.957Z,72.49
2017-02-23T06:07:31.531Z,72.45
2017-02-23T06:07:57.094Z,72.39
2017-02-23T06:08:22.649Z,72.55
2017-02-23T06:08:48.210Z,72.45
2017-02-23T06:09:13.772Z,72.55
2017-02-23T06:09:39.857Z,72.49
2017-02-23T06:10:05.421Z,72.64
2017-02-23T06:10:30.992Z,72.36
2017-02-23T06:10:56.545Z,72.07
2017-02-23T06:11:22.947Z,72.64
2017-02-23T06:11:48.522Z,72.36
2017-02-23T06:12:14.078Z,72.27
2017-02-23T06:12:39.673Z,72.39
2017-02-23T06:13:05.245Z,72.27
2017-02-23T06:13:30.803Z,72.27
2017-02-23T06:13:56.483Z,72.27
2017-02-23T06:14:22.056Z,72.17
2017-02-23T06:14:47.762Z,72.49
2017-02-23T06:15:13.346Z,72.36
2017-02-23T06:15:38.895Z,72.3
2017-02-23T06:16:04.520Z,72.36
2017-02-23T06:16:30.137Z,72.55
2017-02-23T06:16:55.704Z,72.39
2017-02-23T06:17:21.263Z,72.2
2017-02-23T06:17:46.841Z,71.98
2017-02-23T06:18:12.413Z,72.27
2017-02-23T06:18:37.981Z,72.17
2017-02-23T06:19:03.530Z,72.39
2017-02-23T06:19:29.084Z,71.98
2017-02-23T06:19:54.651Z,72.36
2017-02-23T06:20:21.196Z,72.27
2017-02-23T06:20:47.395Z,72.11
2017-02-23T06:21:12.947Z,72.01
2017-02-23T06:21:38.501Z,72.07
2017-02-23T06:22:04.078Z,72.17
2017-02-23T06:22:30.428Z,72.27
2017-02-23T06:22:55.511Z,71.98
2017-02-23T06:23:21.063Z,72.17
2017-02-23T06:23:46.627Z,71.98
2017-02-23T06:24:12.182Z,71.98
2017-02-23T06:24:37.826Z,72.17
2017-02-23T06:25:03.380Z,72.01
2017-02-23T06:25:56.694Z,72.2
2017-02-23T06:26:22.266Z,72.84
2017-02-23T06:26:47.875Z,72.78
2017-02-23T06:27:13.452Z,72.27
2017-02-23T06:27:39.976Z,72.74
2017-02-23T06:28:04.591Z,72.74
2017-02-23T06:28:30.214Z,72.64
2017-02-23T06:28:55.774Z,72.88
2017-02-23T06:29:21.335Z,72.27
2017-02-23T06:29:46.903Z,72.74
2017-02-23T06:30:13.003Z,72.74
2017-02-23T06:30:38.583Z,72.55
2017-02-23T06:31:04.145Z,72.94
2017-02-23T06:31:29.714Z,72.64
2017-02-23T06:31:55.284Z,72.55
2017-02-23T06:32:20.850Z,72.64
2017-02-23T06:32:46.413Z,72.68
2017-02-23T06:33:13.735Z,72.49
2017-02-23T06:33:39.285Z,72.74
2017-02-23T06:34:04.833Z,72.68
2017-02-23T06:34:30.398Z,72.59
2017-02-23T06:34:56.024Z,72.74
2017-02-23T06:35:21.576Z,72.78
2017-02-23T06:35:47.134Z,72.59
2017-02-23T06:36:12.695Z,72.74
2017-02-23T06:36:38.267Z,72.59
2017-02-23T06:37:03.849Z,72.88
2017-02-23T06:37:29.413Z,72.55
2017-02-23T06:37:54.943Z,72.64
2017-02-23T06:38:20.490Z,72.84
2017-02-23T06:38:46.111Z,72.68
2017-02-23T06:39:11.655Z,72.55
2017-02-23T06:39:37.281Z,72.74
2017-02-23T06:40:02.834Z,72.55
2017-02-23T06:40:28.397Z,72.74
2017-02-23T06:40:54.061Z,72.45
2017-02-23T06:41:19.607Z,72.55
2017-02-23T06:41:45.192Z,72.59
2017-02-23T06:42:10.758Z,72.55
2017-02-23T06:42:36.389Z,72.59
2017-02-23T06:43:01.914Z,72.59
2017-02-23T06:43:27.489Z,72.59
2017-02-23T06:43:53.024Z,72.59
2017-02-23T06:44:18.565Z,72.59
2017-02-23T06:44:44.126Z,72.88
2017-02-23T06:45:09.686Z,72.64
2017-02-23T06:45:35.274Z,72.68
2017-02-23T06:46:00.837Z,72.78
2017-02-23T06:46:26.395Z,72.68
2017-02-23T06:46:51.973Z,72.64
2017-02-23T06:47:17.533Z,72.74
2017-02-23T06:47:43.084Z,72.68
2017-02-23T06:48:08.666Z,72.55
2017-02-23T06:48:34.724Z,72.74
2017-02-23T06:49:00.282Z,72.64
2017-02-23T06:49:25.844Z,72.55
2017-02-23T06:49:51.394Z,72.59
2017-02-23T06:50:17.055Z,72.55
2017-02-23T06:50:42.614Z,72.74
2017-02-23T06:51:08.164Z,72.78
2017-02-23T06:51:33.765Z,72.45
2017-02-23T06:51:59.312Z,72.74
2017-02-23T06:52:24.877Z,72.74
2017-02-23T06:52:50.455Z,72.74
2017-02-23T06:53:16.036Z,72.64
2017-02-23T06:53:41.637Z,72.49
2017-02-23T06:54:07.203Z,72.49
2017-02-23T06:54:32.764Z,72.88
2017-02-23T06:54:58.322Z,72.88
2017-02-23T06:55:23.876Z,72.59
2017-02-23T06:55:49.426Z,72.55
2017-02-23T06:56:14.979Z,72.45
2017-02-23T06:56:40.546Z,72.59
2017-02-23T06:57:06.107Z,72.68
2017-02-23T06:57:31.676Z,72.64
2017-02-23T06:57:57.224Z,72.64
2017-02-23T06:58:22.803Z,72.68
2017-02-23T06:58:48.383Z,72.68
2017-02-23T06:59:13.941Z,72.74
2017-02-23T06:59:39.495Z,72.45
2017-02-23T07:00:05.051Z,72.39
2017-02-23T07:00:30.610Z,72.59
2017-02-23T07:01:34.105Z,72.74
2017-02-23T07:01:59.675Z,72.64
2017-02-23T07:02:25.236Z,72.64
2017-02-23T07:02:50.804Z,72.45
2017-02-23T07:03:16.386Z,72.74
2017-02-23T07:03:41.959Z,72.94
2017-02-23T07:04:07.536Z,72.49
2017-02-23T07:04:33.096Z,72.78
2017-02-23T07:04:58.654Z,72.84
2017-02-23T07:05:24.259Z,72.74
2017-02-23T07:05:49.831Z,72.55
2017-02-23T07:06:15.385Z,72.36
2017-02-23T07:06:40.938Z,72.84
2017-02-23T07:07:06.497Z,72.49
2017-02-23T07:07:32.055Z,72.55
2017-02-23T07:07:57.609Z,72.49
2017-02-23T07:08:23.262Z,72.84
2017-02-23T07:08:48.832Z,72.74
2017-02-23T07:09:14.416Z,72.74
2017-02-23T07:09:39.953Z,72.74
2017-02-23T07:10:05.513Z,72.64
2017-02-23T07:11:03.974Z,72.64
2017-02-23T07:11:29.564Z,72.36
2017-02-23T07:13:36.816Z,72.45
2017-02-23T07:14:02.421Z,72.45
2017-02-23T07:14:28.000Z,72.49
2017-02-23T07:14:53.568Z,72.64
2017-02-23T07:15:19.130Z,72.36
2017-02-23T07:15:44.742Z,72.64
2017-02-23T07:16:43.179Z,72.49
2017-02-23T07:17:08.742Z,72.55
2017-02-23T07:17:34.298Z,72.36
2017-02-23T07:17:59.864Z,72.55
2017-02-23T07:18:25.485Z,72.68
2017-02-23T07:18:51.083Z,72.36
2017-02-23T07:19:16.644Z,72.55
2017-02-23T07:19:42.221Z,72.45
2017-02-23T07:20:07.771Z,72.59
2017-02-23T07:20:33.343Z,72.45
2017-02-23T07:20:58.901Z,72.64
2017-02-23T07:21:24.469Z,72.64
2017-02-23T07:21:50.941Z,72.39
2017-02-23T07:22:15.613Z,72.68
2017-02-23T07:22:41.190Z,72.68
2017-02-23T07:23:06.786Z,72.64
2017-02-23T07:23:32.343Z,72.45
2017-02-23T07:23:57.893Z,72.45
2017-02-23T07:24:23.454Z,72.55
2017-02-23T07:24:49.079Z,72.59
2017-02-23T07:25:14.637Z,72.55
2017-02-23T07:25:40.207Z,72.59
2017-02-23T07:26:05.752Z,72.45
2017-02-23T07:26:31.328Z,72.55
2017-02-23T07:26:56.905Z,72.55
2017-02-23T07:27:22.464Z,72.94
2017-02-23T07:27:48.015Z,72.74
2017-02-23T07:28:13.661Z,72.84
2017-02-23T07:28:39.216Z,73.16
2017-02-23T07:29:04.762Z,73.45
2017-02-23T07:29:30.325Z,73.45
2017-02-23T07:29:55.949Z,73.83
2017-02-23T07:30:21.824Z,73.65
2017-02-23T07:30:47.482Z,73.26
2017-02-23T07:31:13.050Z,73.45
2017-02-23T07:31:38.605Z,73.65
2017-02-23T07:32:04.164Z,73.55
2017-02-23T07:32:29.723Z,73.35
2017-02-23T07:32:55.279Z,73.35
2017-02-23T07:33:20.843Z,73.26
2017-02-23T07:33:46.421Z,73.35
2017-02-23T07:34:12.043Z,73.35
2017-02-23T07:34:37.699Z,73.16
2017-02-23T07:35:03.277Z,73.35
2017-02-23T07:35:28.828Z,73.45
2017-02-23T07:35:54.498Z,73.45
2017-02-23T07:36:20.053Z,73.35
2017-02-23T07:36:45.631Z,73.35
2017-02-23T07:37:11.193Z,73.16
2017-02-23T07:37:37.729Z,72.97
2017-02-23T07:38:03.295Z,73.07
2017-02-23T07:38:28.886Z,73.35
2017-02-23T07:38:54.449Z,73.26
2017-02-23T07:39:20.013Z,73.22
2017-02-23T07:39:45.592Z,73.55
2017-02-23T07:40:11.161Z,73.35
2017-02-23T07:40:36.921Z,73.35
2017-02-23T07:41:03.315Z,73.35
2017-02-23T07:41:28.880Z,73.65
2017-02-23T07:41:54.444Z,73.55
2017-02-23T07:42:19.990Z,73.26
2017-02-23T07:42:45.537Z,73.16
2017-02-23T07:43:11.141Z,73.35
2017-02-23T07:43:36.694Z,73.35
2017-02-23T07:44:02.252Z,73.16
2017-02-23T07:44:27.913Z,73.55
2017-02-23T07:44:53.474Z,73.45
2017-02-23T07:45:19.030Z,73.45
2017-02-23T07:45:44.591Z,73.65
2017-02-23T07:46:10.141Z,73.16
2017-02-23T07:46:35.696Z,73.45
2017-02-23T07:47:01.313Z,73.65
2017-02-23T07:47:26.884Z,73.55
2017-02-23T07:47:52.456Z,73.65
2017-02-23T07:48:18.137Z,73.45
2017-02-23T07:48:43.697Z,73.55
2017-02-23T07:49:09.271Z,73.65
2017-02-23T07:49:34.964Z,73.65
2017-02-23T07:50:00.522Z,73.35
2017-02-23T07:50:26.091Z,73.45
2017-02-23T07:50:51.821Z,73.65
2017-02-23T07:51:17.384Z,73.55
2017-02-23T07:51:42.948Z,73.65
2017-02-23T07:52:08.518Z,73.55
2017-02-23T07:52:34.093Z,73.55
2017-02-23T07:52:59.661Z,73.65
2017-02-23T07:53:25.216Z,73.55
2017-02-23T07:53:50.783Z,73.45
2017-02-23T07:54:16.334Z,73.55
2017-02-23T07:54:41.880Z,73.45
2017-02-23T07:55:07.473Z,73.45
2017-02-23T07:55:33.064Z,73.35
2017-02-23T07:55:58.740Z,73.65
2017-02-23T07:56:24.344Z,73.55
2017-02-23T07:56:50.003Z,73.45
2017-02-23T07:57:15.474Z,73.65
2017-02-23T07:57:41.157Z,73.65
2017-02-23T07:58:06.725Z,73.65
2017-02-23T07:58:32.293Z,73.45
2017-02-23T07:58:58.606Z,73.45
2017-02-23T07:59:24.165Z,73.65
2017-02-23T07:59:49.722Z,73.45
2017-02-23T08:00:15.299Z,73.55
2017-02-23T08:00:40.843Z,73.65
2017-02-23T08:01:06.402Z,73.55
2017-02-23T08:01:32.033Z,73.45
2017-02-23T08:01:57.633Z,73.55
2017-02-23T08:02:23.181Z,73.65
2017-02-23T08:02:48.747Z,73.55
2017-02-23T08:03:14.284Z,73.45
2017-02-23T08:03:39.849Z,73.55
2017-02-23T08:04:05.397Z,73.55
2017-02-23T08:04:30.965Z,73.55
2017-02-23T08:04:56.523Z,73.65
2017-02-23T08:05:22.116Z,73.45
2017-02-23T08:05:47.668Z,73.65
2017-02-23T08:06:13.222Z,73.45
2017-02-23T08:06:38.822Z,73.45
2017-02-23T08:07:04.384Z,73.65
2017-02-23T08:07:30.642Z,73.65
2017-02-23T08:07:56.193Z,73.65
2017-02-23T08:08:21.760Z,73.55
2017-02-23T08:08:47.335Z,73.65
2017-02-23T08:09:12.898Z,73.74
2017-02-23T08:09:38.438Z,73.65
2017-02-23T08:10:03.988Z,73.45
2017-02-23T08:10:29.640Z,73.55
2017-02-23T08:10:55.193Z,73.55
2017-02-23T08:11:20.764Z,73.35
2017-02-23T08:11:46.480Z,73.65
2017-02-23T08:12:12.059Z,73.65
2017-02-23T08:12:37.699Z,73.45
2017-02-23T08:13:03.251Z,73.65
2017-02-23T08:13:28.811Z,73.45
2017-02-23T08:13:54.387Z,73.74
2017-02-23T08:14:20.009Z,73.55
2017-02-23T08:14:45.573Z,73.74
2017-02-23T08:15:11.132Z,73.65
2017-02-23T08:15:37.460Z,73.55
2017-02-23T08:16:03.967Z,73.65
2017-02-23T08:16:29.464Z,73.74
2017-02-23T08:16:54.392Z,73.35
2017-02-23T08:17:20.134Z,73.35
2017-02-23T08:17:45.742Z,73.65
2017-02-23T08:18:11.321Z,73.65
2017-02-23T08:18:36.883Z,73.74
2017-02-23T08:19:02.455Z,73.45
2017-02-23T08:19:28.004Z,73.55
2017-02-23T08:19:53.573Z,74.02
2017-02-23T08:20:19.166Z,73.65
2017-02-23T08:20:44.745Z,73.65
2017-02-23T08:21:10.317Z,73.65
2017-02-23T08:21:35.893Z,73.65
2017-02-23T08:22:01.473Z,73.65
2017-02-23T08:22:27.034Z,73.45
2017-02-23T08:22:52.601Z,73.45
2017-02-23T08:23:18.174Z,73.93
2017-02-23T08:23:43.734Z,73.35
2017-02-23T08:24:09.310Z,74.02
2017-02-23T08:24:34.872Z,73.65
2017-02-23T08:25:00.442Z,73.65
2017-02-23T08:25:25.979Z,73.74
2017-02-23T08:25:52.478Z,73.65
2017-02-23T08:26:17.185Z,73.74
2017-02-23T08:26:42.748Z,74.02
2017-02-23T08:27:08.305Z,73.65
2017-02-23T08:27:33.944Z,73.65
2017-02-23T08:27:59.524Z,73.93
2017-02-23T08:28:25.096Z,73.65
2017-02-23T08:28:50.777Z,73.83
2017-02-23T08:29:16.362Z,73.65
2017-02-23T08:29:41.923Z,73.93
2017-02-23T08:30:07.533Z,73.65
2017-02-23T08:30:33.208Z,73.65
2017-02-23T08:30:58.787Z,74.02
2017-02-23T08:31:24.432Z,73.65
2017-02-23T08:31:49.972Z,73.65
2017-02-23T08:32:15.521Z,73.74
2017-02-23T08:32:41.075Z,73.65
2017-02-23T08:33:06.645Z,73.83
2017-02-23T08:33:32.182Z,73.83
2017-02-23T08:33:57.752Z,73.65
2017-02-23T08:34:23.377Z,74.02
2017-02-23T08:34:48.951Z,74.02
2017-02-23T08:35:14.498Z,73.65
2017-02-23T08:36:28.302Z,73.55
2017-02-23T08:36:53.912Z,74.02
2017-02-23T08:37:19.454Z,73.65
2017-02-23T08:37:44.980Z,73.65
2017-02-23T08:38:10.530Z,73.26
2017-02-23T08:38:36.110Z,73.16
2017-02-23T08:39:01.706Z,73.65
2017-02-23T08:39:27.822Z,73.65
2017-02-23T08:39:53.536Z,73.83
2017-02-23T08:40:19.243Z,73.65
2017-02-23T08:40:44.797Z,73.65
2017-02-23T08:41:10.346Z,73.65
2017-02-23T08:41:35.880Z,73.35
2017-02-23T08:42:01.419Z,73.55
2017-02-23T08:42:26.975Z,73.26
2017-02-23T08:42:52.566Z,73.55
2017-02-23T08:43:18.132Z,73.45
2017-02-23T08:43:43.694Z,73.45
2017-02-23T08:44:09.262Z,73.55
2017-02-23T08:44:34.841Z,73.45
2017-02-23T08:45:00.385Z,73.65
2017-02-23T08:45:25.944Z,73.74
2017-02-23T08:45:51.490Z,73.74
2017-02-23T08:46:17.050Z,73.74
2017-02-23T08:46:42.604Z,73.65
2017-02-23T08:47:08.171Z,73.55
2017-02-23T08:47:33.712Z,73.55
2017-02-23T08:47:59.451Z,73.83
2017-02-23T08:48:25.152Z,73.45
2017-02-23T08:48:50.796Z,73.55
2017-02-23T08:49:16.355Z,73.65
2017-02-23T08:49:41.900Z,73.74
2017-02-23T08:50:07.479Z,73.55
2017-02-23T08:50:33.022Z,73.65
2017-02-23T08:50:58.589Z,73.45
2017-02-23T08:51:24.153Z,73.74
2017-02-23T08:51:49.708Z,73.65
2017-02-23T08:52:59.523Z,73.55
2017-02-23T08:55:05.664Z,73.55
2017-02-23T08:55:31.227Z,73.55
2017-02-23T08:55:56.813Z,73.55
2017-02-23T08:57:05.114Z,73.45
2017-02-23T08:57:30.663Z,73.45
2017-02-23T08:57:56.340Z,73.45
2017-02-23T08:58:21.898Z,73.65
2017-02-23T08:58:47.448Z,73.55
2017-02-23T08:59:50.960Z,73.65
2017-02-23T09:00:16.512Z,73.65
2017-02-23T09:00:42.109Z,73.65
2017-02-23T09:01:07.665Z,73.65
2017-02-23T09:01:33.224Z,73.55
2017-02-23T09:01:58.784Z,73.55
2017-02-23T09:02:24.380Z,73.55
2017-02-23T09:02:49.968Z,73.65
2017-02-23T09:03:15.534Z,73.55
2017-02-23T09:03:41.093Z,73.45
2017-02-23T09:04:07.274Z,73.45
2017-02-23T09:04:32.862Z,73.45
2017-02-23T09:04:58.437Z,73.45
2017-02-23T09:05:23.998Z,73.55
2017-02-23T09:05:49.573Z,73.65
2017-02-23T09:06:15.166Z,73.65
2017-02-23T09:06:40.715Z,73.26
2017-02-23T09:07:06.285Z,73.65
2017-02-23T09:07:31.833Z,73.55
2017-02-23T09:07:57.391Z,73.45
2017-02-23T09:08:22.962Z,73.65
2017-02-23T09:08:48.531Z,73.55
2017-02-23T09:09:14.081Z,73.55
2017-02-23T09:09:40.199Z,73.16
2017-02-23T09:10:05.762Z,73.55
2017-02-23T09:10:31.348Z,73.16
2017-02-23T09:10:56.946Z,73.45
2017-02-23T09:11:22.529Z,73.65
2017-02-23T09:11:48.096Z,73.45
2017-02-23T09:12:13.662Z,73.16
2017-02-23T09:12:39.226Z,73.55
2017-02-23T09:13:04.803Z,73.65
2017-02-23T09:13:30.357Z,73.65
2017-02-23T09:13:56.710Z,73.45
2017-02-23T09:14:22.342Z,73.16
2017-02-23T09:14:47.930Z,73.16
2017-02-23T09:15:13.488Z,73.45
2017-02-23T09:15:39.778Z,73.55
2017-02-23T09:16:06.257Z,73.26
2017-02-23T09:16:31.191Z,73.55
2017-02-23T09:16:56.755Z,73.16
2017-02-23T09:17:22.374Z,73.16
2017-02-23T09:17:47.931Z,73.55
2017-02-23T09:18:13.488Z,73.35
2017-02-23T09:18:39.057Z,73.55
2017-02-23T09:19:04.753Z,73.16
2017-02-23T09:19:30.301Z,73.45
2017-02-23T09:19:55.847Z,73.35
2017-02-23T09:20:21.449Z,73.45
2017-02-23T09:20:46.990Z,73.35
2017-02-23T09:21:12.552Z,73.35
2017-02-23T09:21:38.258Z,73.45
2017-02-23T09:22:03.874Z,73.35
2017-02-23T09:22:29.442Z,73.26
2017-02-23T09:22:55.003Z,73.35
2017-02-23T09:23:20.572Z,73.16
2017-02-23T09:23:46.140Z,73.07
2017-02-23T09:24:11.717Z,73.35
2017-02-23T09:24:37.832Z,73.26
2017-02-23T09:25:03.408Z,73.65
2017-02-23T09:25:28.988Z,73.35
2017-02-23T09:25:54.551Z,73.16
2017-02-23T09:26:20.902Z,73.35
2017-02-23T09:27:14.273Z,73.26
2017-02-23T09:27:39.856Z,73.35
2017-02-23T09:28:05.414Z,73.35
2017-02-23T09:28:31.041Z,73.35
2017-02-23T09:28:56.607Z,73.35
2017-02-23T09:29:22.173Z,73.35
2017-02-23T09:29:47.744Z,73.45
2017-02-23T09:30:13.309Z,73.35
2017-02-23T09:30:38.854Z,73.35
2017-02-23T09:31:04.472Z,73.35
2017-02-23T09:31:30.072Z,73.35
2017-02-23T09:31:55.622Z,73.35
2017-02-23T09:32:21.313Z,73.35
2017-02-23T09:32:46.881Z,73.35
2017-02-23T09:33:12.439Z,73.45
2017-02-23T09:33:38.007Z,73.35
2017-02-23T09:34:03.584Z,73.35
2017-02-23T09:34:29.153Z,73.35
2017-02-23T09:34:54.711Z,73.35
2017-02-23T09:35:20.266Z,73.35
2017-02-23T09:35:45.830Z,73.35
2017-02-23T09:36:11.393Z,73.16
2017-02-23T09:36:36.946Z,73.65
2017-02-23T09:37:02.517Z,73.55
2017-02-23T09:37:28.081Z,73.26
2017-02-23T09:37:53.658Z,73.35
2017-02-23T09:38:19.231Z,73.35
2017-02-23T09:38:44.803Z,73.35
2017-02-23T09:39:10.367Z,73.35
2017-02-23T09:39:35.921Z,73.45
2017-02-23T09:40:01.509Z,73.26
2017-02-23T09:40:27.060Z,73.16